sensor_id;sensor_type;location;lat;lon;timestamp;temperature;humidity
76203;DHT22;64985;46.364;17.008;2024-02-28T00:03:00;7.50;99.90
76203;DHT22;64985;46.364;17.008;2024-02-28T00:06:03;7.30;99.90
76203;DHT22;64985;46.364;17.008;2024-02-28T00:09:05;7.20;99.90
76203;DHT22;64985;46.364;17.008;2024-02-28T00:12:08;7.10;99.90
76203;DHT22;64985;46.364;17.008;2024-02-28T00:15:10;7.00;99.90
76203;DHT22;64985;46.364;17.008;2024-02-28T00:18:13;6.90;99.90
76203;DHT22;64985;46.364;17.008;2024-02-28T00:21:16;6.80;99.90
76203;DHT22;64985;46.364;17.008;2024-02-28T00:24:19;6.80;99.90
76203;DHT22;64985;46.364;17.008;2024-02-28T00:27:21;6.80;99.90
76203;DHT22;64985;46.364;17.008;2024-02-28T00:30:23;6.70;99.90
76203;DHT22;64985;46.364;17.008;2024-02-28T00:33:25;6.70;99.90
76203;DHT22;64985;46.364;17.008;2024-02-28T00:36:27;6.60;99.90
76203;DHT22;64985;46.364;17.008;2024-02-28T00:39:40;6.50;99.90
76203;DHT22;64985;46.364;17.008;2024-02-28T00:42:43;6.50;99.90
76203;DHT22;64985;46.364;17.008;2024-02-28T00:45:45;6.40;99.90
76203;DHT22;64985;46.364;17.008;2024-02-28T00:48:48;6.30;99.90
76203;DHT22;64985;46.364;17.008;2024-02-28T00:51:50;6.20;99.90
76203;DHT22;64985;46.364;17.008;2024-02-28T00:54:53;6.20;99.90
76203;DHT22;64985;46.364;17.008;2024-02-28T00:57:55;6.10;99.90
76203;DHT22;64985;46.364;17.008;2024-02-28T01:00:57;6.10;99.90
76203;DHT22;64985;46.364;17.008;2024-02-28T01:04:00;6.00;99.90
76203;DHT22;64985;46.364;17.008;2024-02-28T01:07:03;6.00;99.90
76203;DHT22;64985;46.364;17.008;2024-02-28T01:10:06;6.00;99.90
76203;DHT22;64985;46.364;17.008;2024-02-28T01:13:09;5.90;99.90
76203;DHT22;64985;46.364;17.008;2024-02-28T01:16:11;5.90;99.90
76203;DHT22;64985;46.364;17.008;2024-02-28T01:19:15;5.80;99.90
76203;DHT22;64985;46.364;17.008;2024-02-28T01:22:17;5.80;99.90
76203;DHT22;64985;46.364;17.008;2024-02-28T01:25:20;5.70;99.90
76203;DHT22;64985;46.364;17.008;2024-02-28T01:28:22;5.70;99.90
76203;DHT22;64985;46.364;17.008;2024-02-28T01:31:24;5.60;99.90
76203;DHT22;64985;46.364;17.008;2024-02-28T01:34:26;5.60;99.90
76203;DHT22;64985;46.364;17.008;2024-02-28T01:37:29;5.60;99.90
76203;DHT22;64985;46.364;17.008;2024-02-28T01:40:31;5.50;99.90
76203;DHT22;64985;46.364;17.008;2024-02-28T01:43:33;5.50;99.90
76203;DHT22;64985;46.364;17.008;2024-02-28T01:46:36;5.50;99.90
76203;DHT22;64985;46.364;17.008;2024-02-28T01:49:39;5.40;99.90
76203;DHT22;64985;46.364;17.008;2024-02-28T01:52:42;5.40;99.90
76203;DHT22;64985;46.364;17.008;2024-02-28T01:55:44;5.20;99.90
76203;DHT22;64985;46.364;17.008;2024-02-28T01:58:48;5.20;99.90
76203;DHT22;64985;46.364;17.008;2024-02-28T02:01:50;5.20;99.90
76203;DHT22;64985;46.364;17.008;2024-02-28T02:04:53;5.10;99.90
76203;DHT22;64985;46.364;17.008;2024-02-28T02:08:00;5.10;99.90
76203;DHT22;64985;46.364;17.008;2024-02-28T02:11:04;5.10;99.90
76203;DHT22;64985;46.364;17.008;2024-02-28T02:14:06;5.10;99.90
76203;DHT22;64985;46.364;17.008;2024-02-28T02:17:08;5.00;99.90
76203;DHT22;64985;46.364;17.008;2024-02-28T02:20:14;5.00;99.90
76203;DHT22;64985;46.364;17.008;2024-02-28T02:23:16;5.00;99.90
76203;DHT22;64985;46.364;17.008;2024-02-28T02:26:19;4.90;99.90
76203;DHT22;64985;46.364;17.008;2024-02-28T02:29:21;4.90;99.90
76203;DHT22;64985;46.364;17.008;2024-02-28T02:32:24;4.80;99.90
76203;DHT22;64985;46.364;17.008;2024-02-28T02:35:26;4.70;99.90
76203;DHT22;64985;46.364;17.008;2024-02-28T02:38:28;4.60;99.90
76203;DHT22;64985;46.364;17.008;2024-02-28T02:41:31;4.60;99.90
76203;DHT22;64985;46.364;17.008;2024-02-28T02:44:34;4.50;99.90
76203;DHT22;64985;46.364;17.008;2024-02-28T02:47:36;4.50;99.90
76203;DHT22;64985;46.364;17.008;2024-02-28T02:50:39;4.40;99.90
76203;DHT22;64985;46.364;17.008;2024-02-28T02:53:41;4.40;99.90
76203;DHT22;64985;46.364;17.008;2024-02-28T02:56:44;4.40;99.90
76203;DHT22;64985;46.364;17.008;2024-02-28T02:59:46;4.30;99.90
76203;DHT22;64985;46.364;17.008;2024-02-28T03:02:48;4.20;99.90
76203;DHT22;64985;46.364;17.008;2024-02-28T03:05:50;4.10;99.90
76203;DHT22;64985;46.364;17.008;2024-02-28T03:08:52;4.10;99.90
76203;DHT22;64985;46.364;17.008;2024-02-28T03:11:55;4.10;99.90
76203;DHT22;64985;46.364;17.008;2024-02-28T03:14:57;4.10;99.90
76203;DHT22;64985;46.364;17.008;2024-02-28T03:18:00;4.00;99.90
76203;DHT22;64985;46.364;17.008;2024-02-28T03:21:02;4.00;99.90
76203;DHT22;64985;46.364;17.008;2024-02-28T03:24:05;4.00;99.90
76203;DHT22;64985;46.364;17.008;2024-02-28T03:27:07;4.00;99.90
76203;DHT22;64985;46.364;17.008;2024-02-28T03:30:10;3.90;99.90
76203;DHT22;64985;46.364;17.008;2024-02-28T03:33:13;3.90;99.90
76203;DHT22;64985;46.364;17.008;2024-02-28T03:36:16;3.80;99.90
76203;DHT22;64985;46.364;17.008;2024-02-28T03:39:18;3.80;99.90
76203;DHT22;64985;46.364;17.008;2024-02-28T03:42:20;3.80;99.90
76203;DHT22;64985;46.364;17.008;2024-02-28T03:45:23;3.70;99.90
76203;DHT22;64985;46.364;17.008;2024-02-28T03:48:25;3.70;99.90
76203;DHT22;64985;46.364;17.008;2024-02-28T03:51:28;3.70;99.90
76203;DHT22;64985;46.364;17.008;2024-02-28T03:54:31;3.70;99.90
76203;DHT22;64985;46.364;17.008;2024-02-28T03:57:33;3.70;99.90
76203;DHT22;64985;46.364;17.008;2024-02-28T04:00:36;3.70;99.90
76203;DHT22;64985;46.364;17.008;2024-02-28T04:03:39;3.60;99.90
76203;DHT22;64985;46.364;17.008;2024-02-28T04:06:41;3.60;99.90
76203;DHT22;64985;46.364;17.008;2024-02-28T04:09:44;3.50;99.90
76203;DHT22;64985;46.364;17.008;2024-02-28T04:12:46;3.50;99.90
76203;DHT22;64985;46.364;17.008;2024-02-28T04:15:49;3.50;99.90
76203;DHT22;64985;46.364;17.008;2024-02-28T04:18:51;3.50;99.90
76203;DHT22;64985;46.364;17.008;2024-02-28T04:21:53;3.50;99.90
76203;DHT22;64985;46.364;17.008;2024-02-28T04:24:56;3.50;99.90
76203;DHT22;64985;46.364;17.008;2024-02-28T04:27:58;3.60;99.90
76203;DHT22;64985;46.364;17.008;2024-02-28T04:31:01;3.60;99.90
76203;DHT22;64985;46.364;17.008;2024-02-28T04:34:03;3.60;99.90
76203;DHT22;64985;46.364;17.008;2024-02-28T04:37:05;3.60;99.90
76203;DHT22;64985;46.364;17.008;2024-02-28T04:40:08;3.60;99.90
76203;DHT22;64985;46.364;17.008;2024-02-28T04:43:10;3.60;99.90
76203;DHT22;64985;46.364;17.008;2024-02-28T04:46:12;3.60;99.90
76203;DHT22;64985;46.364;17.008;2024-02-28T04:49:15;3.50;99.90
76203;DHT22;64985;46.364;17.008;2024-02-28T04:52:17;3.40;99.90
76203;DHT22;64985;46.364;17.008;2024-02-28T04:55:22;3.40;99.90
76203;DHT22;64985;46.364;17.008;2024-02-28T04:58:25;3.40;99.90
76203;DHT22;64985;46.364;17.008;2024-02-28T05:01:27;3.40;99.90
76203;DHT22;64985;46.364;17.008;2024-02-28T05:04:30;3.40;99.90
76203;DHT22;64985;46.364;17.008;2024-02-28T05:07:32;3.40;99.90
76203;DHT22;64985;46.364;17.008;2024-02-28T05:10:35;3.40;99.90
76203;DHT22;64985;46.364;17.008;2024-02-28T05:13:37;3.50;99.90
76203;DHT22;64985;46.364;17.008;2024-02-28T05:16:39;3.40;99.90
76203;DHT22;64985;46.364;17.008;2024-02-28T05:19:42;3.50;99.90
76203;DHT22;64985;46.364;17.008;2024-02-28T05:22:44;3.50;99.90
76203;DHT22;64985;46.364;17.008;2024-02-28T05:25:46;3.50;99.90
76203;DHT22;64985;46.364;17.008;2024-02-28T05:28:49;3.40;99.90
76203;DHT22;64985;46.364;17.008;2024-02-28T05:31:51;3.40;99.90
76203;DHT22;64985;46.364;17.008;2024-02-28T05:34:53;3.40;99.90
76203;DHT22;64985;46.364;17.008;2024-02-28T05:37:55;3.40;99.90
76203;DHT22;64985;46.364;17.008;2024-02-28T05:40:57;3.40;99.90
76203;DHT22;64985;46.364;17.008;2024-02-28T05:44:00;3.50;99.90
76203;DHT22;64985;46.364;17.008;2024-02-28T05:47:02;3.50;99.90
76203;DHT22;64985;46.364;17.008;2024-02-28T05:50:05;3.50;99.90
76203;DHT22;64985;46.364;17.008;2024-02-28T05:53:07;3.60;99.90
76203;DHT22;64985;46.364;17.008;2024-02-28T05:56:10;3.70;99.90
76203;DHT22;64985;46.364;17.008;2024-02-28T05:59:19;3.70;99.90
76203;DHT22;64985;46.364;17.008;2024-02-28T06:02:21;3.70;99.90
76203;DHT22;64985;46.364;17.008;2024-02-28T06:05:23;3.70;99.90
76203;DHT22;64985;46.364;17.008;2024-02-28T06:08:26;3.70;99.90
76203;DHT22;64985;46.364;17.008;2024-02-28T06:11:28;3.80;99.90
76203;DHT22;64985;46.364;17.008;2024-02-28T06:14:30;3.90;99.90
76203;DHT22;64985;46.364;17.008;2024-02-28T06:17:32;4.00;99.90
76203;DHT22;64985;46.364;17.008;2024-02-28T06:20:35;4.10;99.90
76203;DHT22;64985;46.364;17.008;2024-02-28T06:23:39;4.30;99.90
76203;DHT22;64985;46.364;17.008;2024-02-28T06:26:41;4.40;99.90
76203;DHT22;64985;46.364;17.008;2024-02-28T06:29:48;4.50;99.90
76203;DHT22;64985;46.364;17.008;2024-02-28T06:32:51;4.70;99.90
76203;DHT22;64985;46.364;17.008;2024-02-28T06:35:53;4.80;99.90
76203;DHT22;64985;46.364;17.008;2024-02-28T06:38:55;5.00;99.90
76203;DHT22;64985;46.364;17.008;2024-02-28T06:41:58;5.20;99.90
76203;DHT22;64985;46.364;17.008;2024-02-28T06:45:00;5.30;99.90
76203;DHT22;64985;46.364;17.008;2024-02-28T06:48:02;5.40;99.90
76203;DHT22;64985;46.364;17.008;2024-02-28T06:51:05;5.60;99.90
76203;DHT22;64985;46.364;17.008;2024-02-28T06:54:07;5.70;99.90
76203;DHT22;64985;46.364;17.008;2024-02-28T06:57:09;5.80;99.90
76203;DHT22;64985;46.364;17.008;2024-02-28T07:00:13;5.80;99.90
76203;DHT22;64985;46.364;17.008;2024-02-28T07:03:20;5.80;99.90
76203;DHT22;64985;46.364;17.008;2024-02-28T07:06:23;6.00;99.90
76203;DHT22;64985;46.364;17.008;2024-02-28T07:09:25;6.10;99.90
76203;DHT22;64985;46.364;17.008;2024-02-28T07:12:32;6.30;99.90
76203;DHT22;64985;46.364;17.008;2024-02-28T07:15:34;6.50;99.90
76203;DHT22;64985;46.364;17.008;2024-02-28T07:18:36;6.70;99.90
76203;DHT22;64985;46.364;17.008;2024-02-28T07:21:39;7.00;99.90
76203;DHT22;64985;46.364;17.008;2024-02-28T07:24:42;7.30;99.90
76203;DHT22;64985;46.364;17.008;2024-02-28T07:27:45;7.50;99.90
76203;DHT22;64985;46.364;17.008;2024-02-28T07:30:47;7.70;99.90
76203;DHT22;64985;46.364;17.008;2024-02-28T07:33:50;7.90;99.90
76203;DHT22;64985;46.364;17.008;2024-02-28T07:36:53;8.10;99.90
76203;DHT22;64985;46.364;17.008;2024-02-28T07:39:55;8.20;99.90
76203;DHT22;64985;46.364;17.008;2024-02-28T07:42:57;8.30;99.90
76203;DHT22;64985;46.364;17.008;2024-02-28T07:45:59;8.40;99.90
76203;DHT22;64985;46.364;17.008;2024-02-28T07:49:02;8.60;99.90
76203;DHT22;64985;46.364;17.008;2024-02-28T07:52:04;8.80;99.90
76203;DHT22;64985;46.364;17.008;2024-02-28T07:55:07;9.00;99.90
76203;DHT22;64985;46.364;17.008;2024-02-28T07:58:09;9.30;99.90
76203;DHT22;64985;46.364;17.008;2024-02-28T08:01:11;9.50;99.90
76203;DHT22;64985;46.364;17.008;2024-02-28T08:04:14;9.70;99.90
76203;DHT22;64985;46.364;17.008;2024-02-28T08:07:16;10.00;99.90
76203;DHT22;64985;46.364;17.008;2024-02-28T08:10:19;10.30;99.90
76203;DHT22;64985;46.364;17.008;2024-02-28T08:13:22;10.70;99.90
76203;DHT22;64985;46.364;17.008;2024-02-28T08:16:24;11.30;99.90
76203;DHT22;64985;46.364;17.008;2024-02-28T08:19:28;11.90;99.90
76203;DHT22;64985;46.364;17.008;2024-02-28T08:22:31;12.40;99.90
76203;DHT22;64985;46.364;17.008;2024-02-28T08:25:33;12.90;99.90
76203;DHT22;64985;46.364;17.008;2024-02-28T08:28:35;13.60;99.90
76203;DHT22;64985;46.364;17.008;2024-02-28T08:31:43;14.30;99.90
76203;DHT22;64985;46.364;17.008;2024-02-28T08:34:45;15.10;99.90
76203;DHT22;64985;46.364;17.008;2024-02-28T08:37:51;15.60;99.90
76203;DHT22;64985;46.364;17.008;2024-02-28T08:40:53;16.20;99.90
76203;DHT22;64985;46.364;17.008;2024-02-28T08:43:55;16.90;99.90
76203;DHT22;64985;46.364;17.008;2024-02-28T08:46:57;17.20;99.90
76203;DHT22;64985;46.364;17.008;2024-02-28T08:50:00;17.30;99.90
76203;DHT22;64985;46.364;17.008;2024-02-28T08:53:02;17.50;99.90
76203;DHT22;64985;46.364;17.008;2024-02-28T08:56:05;17.60;99.90
76203;DHT22;64985;46.364;17.008;2024-02-28T08:59:08;17.80;99.90
76203;DHT22;64985;46.364;17.008;2024-02-28T09:02:11;18.20;99.90
76203;DHT22;64985;46.364;17.008;2024-02-28T09:05:13;18.30;99.90
76203;DHT22;64985;46.364;17.008;2024-02-28T09:08:15;18.50;99.90
76203;DHT22;64985;46.364;17.008;2024-02-28T09:11:18;18.30;99.90
76203;DHT22;64985;46.364;17.008;2024-02-28T09:14:20;18.70;99.90
76203;DHT22;64985;46.364;17.008;2024-02-28T09:17:22;18.80;99.90
76203;DHT22;64985;46.364;17.008;2024-02-28T09:20:24;19.00;99.90
76203;DHT22;64985;46.364;17.008;2024-02-28T09:23:27;19.30;99.90
76203;DHT22;64985;46.364;17.008;2024-02-28T09:26:29;19.30;99.50
76203;DHT22;64985;46.364;17.008;2024-02-28T09:29:31;19.10;98.80
76203;DHT22;64985;46.364;17.008;2024-02-28T09:32:33;19.60;97.50
76203;DHT22;64985;46.364;17.008;2024-02-28T09:35:36;19.80;94.50
76203;DHT22;64985;46.364;17.008;2024-02-28T09:38:38;20.10;91.40
76203;DHT22;64985;46.364;17.008;2024-02-28T09:41:41;20.10;91.00
76203;DHT22;64985;46.364;17.008;2024-02-28T09:44:43;20.30;90.70
76203;DHT22;64985;46.364;17.008;2024-02-28T09:47:46;20.30;87.20
76203;DHT22;64985;46.364;17.008;2024-02-28T09:50:48;20.20;87.40
76203;DHT22;64985;46.364;17.008;2024-02-28T09:53:51;20.20;84.90
76203;DHT22;64985;46.364;17.008;2024-02-28T09:56:55;20.50;80.60
76203;DHT22;64985;46.364;17.008;2024-02-28T09:59:59;20.40;80.70
76203;DHT22;64985;46.364;17.008;2024-02-28T10:03:04;20.70;80.80
76203;DHT22;64985;46.364;17.008;2024-02-28T10:06:07;20.60;80.40
76203;DHT22;64985;46.364;17.008;2024-02-28T10:09:12;20.50;78.40
76203;DHT22;64985;46.364;17.008;2024-02-28T10:12:15;20.50;79.20
76203;DHT22;64985;46.364;17.008;2024-02-28T10:15:17;20.70;77.60
76203;DHT22;64985;46.364;17.008;2024-02-28T10:18:20;20.40;75.80
76203;DHT22;64985;46.364;17.008;2024-02-28T10:21:22;20.30;77.40
76203;DHT22;64985;46.364;17.008;2024-02-28T10:24:27;20.10;79.20
76203;DHT22;64985;46.364;17.008;2024-02-28T10:27:33;20.50;78.20
76203;DHT22;64985;46.364;17.008;2024-02-28T10:30:40;20.80;77.20
76203;DHT22;64985;46.364;17.008;2024-02-28T10:33:43;20.90;76.20
76203;DHT22;64985;46.364;17.008;2024-02-28T10:36:46;20.50;76.70
76203;DHT22;64985;46.364;17.008;2024-02-28T10:39:49;20.90;76.40
76203;DHT22;64985;46.364;17.008;2024-02-28T10:42:54;21.20;76.00
76203;DHT22;64985;46.364;17.008;2024-02-28T10:45:58;20.80;73.00
76203;DHT22;64985;46.364;17.008;2024-02-28T10:49:06;21.10;76.10
76203;DHT22;64985;46.364;17.008;2024-02-28T10:52:11;21.70;74.80
76203;DHT22;64985;46.364;17.008;2024-02-28T10:55:21;22.00;74.80
76203;DHT22;64985;46.364;17.008;2024-02-28T10:58:26;22.80;73.30
76203;DHT22;64985;46.364;17.008;2024-02-28T11:01:31;23.60;72.10
76203;DHT22;64985;46.364;17.008;2024-02-28T11:04:34;23.40;70.30
76203;DHT22;64985;46.364;17.008;2024-02-28T11:07:41;24.10;66.80
76203;DHT22;64985;46.364;17.008;2024-02-28T11:10:44;24.30;66.00
76203;DHT22;64985;46.364;17.008;2024-02-28T11:13:53;24.10;64.80
76203;DHT22;64985;46.364;17.008;2024-02-28T11:17:03;23.90;65.70
76203;DHT22;64985;46.364;17.008;2024-02-28T11:20:12;24.20;65.70
76203;DHT22;64985;46.364;17.008;2024-02-28T11:23:17;24.00;63.60
76203;DHT22;64985;46.364;17.008;2024-02-28T11:26:19;23.70;63.10
76203;DHT22;64985;46.364;17.008;2024-02-28T11:29:27;23.60;65.50
76203;DHT22;64985;46.364;17.008;2024-02-28T11:32:30;23.70;62.50
76203;DHT22;64985;46.364;17.008;2024-02-28T11:35:35;23.60;61.80
76203;DHT22;64985;46.364;17.008;2024-02-28T11:38:38;23.00;62.60
76203;DHT22;64985;46.364;17.008;2024-02-28T11:41:42;22.50;66.10
76203;DHT22;64985;46.364;17.008;2024-02-28T11:44:53;22.10;66.70
76203;DHT22;64985;46.364;17.008;2024-02-28T11:48:01;22.20;66.10
76203;DHT22;64985;46.364;17.008;2024-02-28T11:51:03;21.80;67.40
76203;DHT22;64985;46.364;17.008;2024-02-28T11:54:07;21.20;67.60
76203;DHT22;64985;46.364;17.008;2024-02-28T11:57:11;20.80;70.30
76203;DHT22;64985;46.364;17.008;2024-02-28T12:00:16;20.80;69.90
76203;DHT22;64985;46.364;17.008;2024-02-28T12:03:23;20.80;71.00
76203;DHT22;64985;46.364;17.008;2024-02-28T12:06:25;20.80;69.40
76203;DHT22;64985;46.364;17.008;2024-02-28T12:09:27;20.80;68.40
76203;DHT22;64985;46.364;17.008;2024-02-28T12:12:44;20.90;68.40
76203;DHT22;64985;46.364;17.008;2024-02-28T12:15:46;21.00;69.70
76203;DHT22;64985;46.364;17.008;2024-02-28T12:18:51;21.20;69.20
76203;DHT22;64985;46.364;17.008;2024-02-28T12:21:54;20.60;70.30
76203;DHT22;64985;46.364;17.008;2024-02-28T12:24:56;20.90;67.60
76203;DHT22;64985;46.364;17.008;2024-02-28T12:28:00;20.70;69.90
76203;DHT22;64985;46.364;17.008;2024-02-28T12:31:03;20.80;70.80
76203;DHT22;64985;46.364;17.008;2024-02-28T12:34:10;20.90;69.70
76203;DHT22;64985;46.364;17.008;2024-02-28T12:37:13;21.10;68.30
76203;DHT22;64985;46.364;17.008;2024-02-28T12:40:16;21.20;66.40
76203;DHT22;64985;46.364;17.008;2024-02-28T12:43:19;21.30;63.70
76203;DHT22;64985;46.364;17.008;2024-02-28T12:46:21;20.70;66.00
76203;DHT22;64985;46.364;17.008;2024-02-28T12:49:23;20.20;66.90
76203;DHT22;64985;46.364;17.008;2024-02-28T12:52:25;20.50;66.70
76203;DHT22;64985;46.364;17.008;2024-02-28T12:55:28;20.70;65.90
76203;DHT22;64985;46.364;17.008;2024-02-28T12:58:30;21.10;63.40
76203;DHT22;64985;46.364;17.008;2024-02-28T13:01:33;20.40;64.50
76203;DHT22;64985;46.364;17.008;2024-02-28T13:04:35;20.10;65.60
76203;DHT22;64985;46.364;17.008;2024-02-28T13:07:37;20.20;66.20
76203;DHT22;64985;46.364;17.008;2024-02-28T13:10:39;19.80;66.80
76203;DHT22;64985;46.364;17.008;2024-02-28T13:13:43;19.40;67.50
76203;DHT22;64985;46.364;17.008;2024-02-28T13:16:45;19.60;69.50
76203;DHT22;64985;46.364;17.008;2024-02-28T13:19:47;19.70;65.00
76203;DHT22;64985;46.364;17.008;2024-02-28T13:22:50;19.40;66.50
76203;DHT22;64985;46.364;17.008;2024-02-28T13:25:53;18.80;68.20
76203;DHT22;64985;46.364;17.008;2024-02-28T13:28:55;18.60;68.00
76203;DHT22;64985;46.364;17.008;2024-02-28T13:31:58;18.50;68.20
76203;DHT22;64985;46.364;17.008;2024-02-28T13:35:01;18.20;69.10
76203;DHT22;64985;46.364;17.008;2024-02-28T13:38:04;18.10;71.40
76203;DHT22;64985;46.364;17.008;2024-02-28T13:41:06;17.60;71.00
76203;DHT22;64985;46.364;17.008;2024-02-28T13:44:09;17.60;71.80
76203;DHT22;64985;46.364;17.008;2024-02-28T13:47:11;17.70;71.10
76203;DHT22;64985;46.364;17.008;2024-02-28T13:50:15;17.80;71.20
76203;DHT22;64985;46.364;17.008;2024-02-28T13:53:17;17.80;69.80
76203;DHT22;64985;46.364;17.008;2024-02-28T13:56:19;18.00;69.70
76203;DHT22;64985;46.364;17.008;2024-02-28T13:59:22;18.30;67.30
76203;DHT22;64985;46.364;17.008;2024-02-28T14:02:24;18.60;66.90
76203;DHT22;64985;46.364;17.008;2024-02-28T14:05:29;18.60;68.20
76203;DHT22;64985;46.364;17.008;2024-02-28T14:08:31;18.90;69.70
76203;DHT22;64985;46.364;17.008;2024-02-28T14:11:36;19.10;66.10
76203;DHT22;64985;46.364;17.008;2024-02-28T14:14:39;19.20;66.70
76203;DHT22;64985;46.364;17.008;2024-02-28T14:17:41;19.30;69.00
76203;DHT22;64985;46.364;17.008;2024-02-28T14:20:45;19.30;65.40
76203;DHT22;64985;46.364;17.008;2024-02-28T14:23:47;19.30;65.30
76203;DHT22;64985;46.364;17.008;2024-02-28T14:26:50;19.10;66.20
76203;DHT22;64985;46.364;17.008;2024-02-28T14:29:52;19.00;66.70
76203;DHT22;64985;46.364;17.008;2024-02-28T14:32:54;19.10;64.10
76203;DHT22;64985;46.364;17.008;2024-02-28T14:35:58;19.00;69.10
76203;DHT22;64985;46.364;17.008;2024-02-28T14:39:01;18.80;69.40
76203;DHT22;64985;46.364;17.008;2024-02-28T14:42:03;18.60;68.80
76203;DHT22;64985;46.364;17.008;2024-02-28T14:45:09;18.20;68.40
76203;DHT22;64985;46.364;17.008;2024-02-28T14:48:18;17.90;66.90
76203;DHT22;64985;46.364;17.008;2024-02-28T14:51:20;17.70;68.30
76203;DHT22;64985;46.364;17.008;2024-02-28T14:54:22;17.50;67.60
76203;DHT22;64985;46.364;17.008;2024-02-28T14:57:25;17.40;67.50
76203;DHT22;64985;46.364;17.008;2024-02-28T15:00:30;17.40;72.40
76203;DHT22;64985;46.364;17.008;2024-02-28T15:03:32;17.20;79.70
76203;DHT22;64985;46.364;17.008;2024-02-28T15:06:35;17.20;83.80
76203;DHT22;64985;46.364;17.008;2024-02-28T15:09:37;17.20;85.40
76203;DHT22;64985;46.364;17.008;2024-02-28T15:12:42;17.10;86.90
76203;DHT22;64985;46.364;17.008;2024-02-28T15:15:47;17.00;87.30
76203;DHT22;64985;46.364;17.008;2024-02-28T15:18:49;16.70;87.00
76203;DHT22;64985;46.364;17.008;2024-02-28T15:21:55;16.40;89.80
76203;DHT22;64985;46.364;17.008;2024-02-28T15:24:58;16.20;90.70
76203;DHT22;64985;46.364;17.008;2024-02-28T15:28:00;16.20;93.00
76203;DHT22;64985;46.364;17.008;2024-02-28T15:31:03;16.10;98.30
76203;DHT22;64985;46.364;17.008;2024-02-28T15:34:05;15.90;99.90
76203;DHT22;64985;46.364;17.008;2024-02-28T15:37:08;15.80;99.90
76203;DHT22;64985;46.364;17.008;2024-02-28T15:40:11;15.70;99.90
76203;DHT22;64985;46.364;17.008;2024-02-28T15:43:14;15.60;99.90
76203;DHT22;64985;46.364;17.008;2024-02-28T15:46:16;15.50;99.90
76203;DHT22;64985;46.364;17.008;2024-02-28T15:49:20;15.40;99.90
76203;DHT22;64985;46.364;17.008;2024-02-28T15:52:40;15.30;99.90
76203;DHT22;64985;46.364;17.008;2024-02-28T15:55:42;15.10;99.90
76203;DHT22;64985;46.364;17.008;2024-02-28T15:58:44;15.00;99.90
76203;DHT22;64985;46.364;17.008;2024-02-28T16:01:46;14.90;99.90
76203;DHT22;64985;46.364;17.008;2024-02-28T16:04:49;14.70;99.90
76203;DHT22;64985;46.364;17.008;2024-02-28T16:07:52;14.50;99.90
76203;DHT22;64985;46.364;17.008;2024-02-28T16:10:54;14.40;99.90
76203;DHT22;64985;46.364;17.008;2024-02-28T16:13:57;14.20;99.90
76203;DHT22;64985;46.364;17.008;2024-02-28T16:16:59;14.00;99.90
76203;DHT22;64985;46.364;17.008;2024-02-28T16:20:01;13.80;99.90
76203;DHT22;64985;46.364;17.008;2024-02-28T16:23:04;13.70;99.90
76203;DHT22;64985;46.364;17.008;2024-02-28T16:26:07;13.50;99.90
76203;DHT22;64985;46.364;17.008;2024-02-28T16:29:09;13.40;99.90
76203;DHT22;64985;46.364;17.008;2024-02-28T16:32:12;13.30;99.90
76203;DHT22;64985;46.364;17.008;2024-02-28T16:35:14;13.10;99.90
76203;DHT22;64985;46.364;17.008;2024-02-28T16:38:16;13.00;99.90
76203;DHT22;64985;46.364;17.008;2024-02-28T16:41:20;12.80;99.90
76203;DHT22;64985;46.364;17.008;2024-02-28T16:44:23;12.60;99.90
76203;DHT22;64985;46.364;17.008;2024-02-28T16:47:25;12.50;99.90
76203;DHT22;64985;46.364;17.008;2024-02-28T16:50:28;12.40;99.90
76203;DHT22;64985;46.364;17.008;2024-02-28T16:53:30;12.30;99.90
76203;DHT22;64985;46.364;17.008;2024-02-28T16:56:34;12.20;99.90
76203;DHT22;64985;46.364;17.008;2024-02-28T16:59:36;12.00;99.90
76203;DHT22;64985;46.364;17.008;2024-02-28T17:02:39;11.90;99.90
76203;DHT22;64985;46.364;17.008;2024-02-28T17:05:41;11.80;99.90
76203;DHT22;64985;46.364;17.008;2024-02-28T17:08:43;11.80;99.90
76203;DHT22;64985;46.364;17.008;2024-02-28T17:11:46;11.70;99.90
76203;DHT22;64985;46.364;17.008;2024-02-28T17:14:48;11.60;99.90
76203;DHT22;64985;46.364;17.008;2024-02-28T17:17:51;11.60;99.90
76203;DHT22;64985;46.364;17.008;2024-02-28T17:20:53;11.50;99.90
76203;DHT22;64985;46.364;17.008;2024-02-28T17:23:55;11.50;99.90
76203;DHT22;64985;46.364;17.008;2024-02-28T17:26:58;11.40;99.90
76203;DHT22;64985;46.364;17.008;2024-02-28T17:30:01;11.30;99.90
76203;DHT22;64985;46.364;17.008;2024-02-28T17:33:06;11.30;99.90
76203;DHT22;64985;46.364;17.008;2024-02-28T17:36:08;11.20;99.90
76203;DHT22;64985;46.364;17.008;2024-02-28T17:39:11;11.10;99.90
76203;DHT22;64985;46.364;17.008;2024-02-28T17:42:18;11.10;99.90
76203;DHT22;64985;46.364;17.008;2024-02-28T17:45:22;11.00;99.90
76203;DHT22;64985;46.364;17.008;2024-02-28T17:48:24;10.90;99.90
76203;DHT22;64985;46.364;17.008;2024-02-28T17:51:27;10.80;99.90
76203;DHT22;64985;46.364;17.008;2024-02-28T17:54:29;10.70;99.90
76203;DHT22;64985;46.364;17.008;2024-02-28T17:57:33;10.70;99.90
76203;DHT22;64985;46.364;17.008;2024-02-28T18:00:37;10.70;99.90
76203;DHT22;64985;46.364;17.008;2024-02-28T18:03:39;10.60;99.90
76203;DHT22;64985;46.364;17.008;2024-02-28T18:06:44;10.60;99.90
76203;DHT22;64985;46.364;17.008;2024-02-28T18:09:46;10.50;99.90
76203;DHT22;64985;46.364;17.008;2024-02-28T18:12:49;10.50;99.90
76203;DHT22;64985;46.364;17.008;2024-02-28T18:15:52;10.40;99.90
76203;DHT22;64985;46.364;17.008;2024-02-28T18:18:55;10.40;99.90
76203;DHT22;64985;46.364;17.008;2024-02-28T18:21:57;10.30;99.90
76203;DHT22;64985;46.364;17.008;2024-02-28T18:24:59;10.30;99.90
76203;DHT22;64985;46.364;17.008;2024-02-28T18:28:03;10.30;99.90
76203;DHT22;64985;46.364;17.008;2024-02-28T18:31:06;10.20;99.90
76203;DHT22;64985;46.364;17.008;2024-02-28T18:34:08;10.20;99.90
76203;DHT22;64985;46.364;17.008;2024-02-28T18:37:11;10.10;99.90
76203;DHT22;64985;46.364;17.008;2024-02-28T18:40:13;10.10;99.90
76203;DHT22;64985;46.364;17.008;2024-02-28T18:43:18;10.00;99.90
76203;DHT22;64985;46.364;17.008;2024-02-28T18:46:21;10.00;99.90
76203;DHT22;64985;46.364;17.008;2024-02-28T18:49:23;9.90;99.90
76203;DHT22;64985;46.364;17.008;2024-02-28T18:52:26;9.90;99.90
76203;DHT22;64985;46.364;17.008;2024-02-28T18:55:28;9.90;99.90
76203;DHT22;64985;46.364;17.008;2024-02-28T18:58:31;9.80;99.90
76203;DHT22;64985;46.364;17.008;2024-02-28T19:01:34;9.80;99.90
76203;DHT22;64985;46.364;17.008;2024-02-28T19:04:36;9.80;99.90
76203;DHT22;64985;46.364;17.008;2024-02-28T19:07:38;9.80;99.90